createdAt,value
2023-04-28T00:00:46.652Z,1555.00
2023-04-28T00:01:46.672Z,1554.00
2023-04-28T00:02:46.791Z,1554.00
2023-04-28T00:03:46.846Z,1553.00
2023-04-28T00:04:47.073Z,1555.00
2023-04-28T00:05:46.931Z,1555.00
2023-04-28T00:06:46.904Z,1555.00
2023-04-28T00:07:46.961Z,1548.00
2023-04-28T00:08:47.020Z,1548.00
2023-04-28T00:09:47.069Z,1546.00
2023-04-28T00:10:47.137Z,1545.00
2023-04-28T00:11:47.211Z,1545.00
2023-04-28T00:12:47.279Z,1551.00
2023-04-28T00:13:47.323Z,1554.00
2023-04-28T00:14:47.378Z,1555.00
2023-04-28T00:15:47.426Z,1555.00
2023-04-28T00:16:47.567Z,1554.00
2023-04-28T00:17:47.594Z,1551.00
2023-04-28T00:18:47.598Z,1553.00
2023-04-28T00:19:47.659Z,1557.00
2023-04-28T00:20:47.691Z,1554.00
2023-04-28T00:21:47.738Z,1554.00
2023-04-28T00:22:47.800Z,1552.00
2023-04-28T00:23:47.838Z,1551.00
2023-04-28T00:24:47.892Z,1544.00
2023-04-28T00:25:47.923Z,1542.00
2023-04-28T00:26:47.970Z,1539.00
2023-04-28T00:27:48.003Z,1541.00
2023-04-28T00:28:48.035Z,1540.00
2023-04-28T00:29:48.063Z,1543.00
2023-04-28T00:30:48.110Z,1543.00
2023-04-28T00:31:48.171Z,1544.00
2023-04-28T00:32:48.210Z,1546.00
2023-04-28T00:33:48.216Z,1545.00
2023-04-28T00:34:48.246Z,1543.00
2023-04-28T00:35:48.289Z,1537.00
2023-04-28T00:36:48.322Z,1533.00
2023-04-28T00:37:48.359Z,1530.00
2023-04-28T00:38:48.407Z,1528.00
2023-04-28T00:39:48.439Z,1528.00
2023-04-28T00:40:48.738Z,1531.00
2023-04-28T00:41:48.474Z,1530.00
2023-04-28T00:42:48.526Z,1530.00
2023-04-28T00:43:48.613Z,1528.00
2023-04-28T00:44:48.585Z,1528.00
2023-04-28T00:45:48.692Z,1530.00
2023-04-28T00:46:48.655Z,1529.00
2023-04-28T00:47:48.704Z,1530.00
2023-04-28T00:48:48.711Z,1525.00
2023-04-28T00:49:48.759Z,1521.00
2023-04-28T00:50:48.794Z,1518.00
2023-04-28T00:51:48.818Z,1518.00
2023-04-28T00:52:48.842Z,1517.00
2023-04-28T00:53:48.889Z,1512.00
2023-04-28T00:54:48.907Z,1508.00
2023-04-28T00:55:48.952Z,1509.00
2023-04-28T00:56:48.984Z,1510.00
2023-04-28T00:57:49.080Z,1511.00
2023-04-28T00:58:49.723Z,1510.00
2023-04-28T00:59:49.089Z,1510.00
2023-04-28T01:00:49.186Z,1508.00
2023-04-28T01:01:49.150Z,1507.00
2023-04-28T01:02:49.350Z,1506.00
2023-04-28T01:03:49.480Z,1502.00
2023-04-28T01:04:50.222Z,1503.00
2023-04-28T01:05:49.267Z,1505.00
2023-04-28T01:06:49.313Z,1505.00
2023-04-28T01:07:49.330Z,1503.00
2023-04-28T01:08:49.367Z,1500.00
2023-04-28T01:09:49.409Z,1496.00
2023-04-28T01:10:50.291Z,1496.00
2023-04-28T01:11:49.476Z,1498.00
2023-04-28T01:12:49.512Z,1500.00
2023-04-28T01:13:49.592Z,1499.00
2023-04-28T01:14:49.588Z,1495.00
2023-04-28T01:15:49.680Z,1492.00
2023-04-28T01:16:49.709Z,1491.00
2023-04-28T01:17:49.724Z,1494.00
2023-04-28T01:18:49.729Z,1498.00
2023-04-28T01:19:49.815Z,1497.00
2023-04-28T01:20:49.835Z,1498.00
2023-04-28T01:21:49.833Z,1500.00
2023-04-28T01:22:49.862Z,1499.00
2023-04-28T01:23:49.889Z,1493.00
2023-04-28T01:24:49.937Z,1495.00
2023-04-28T01:25:49.986Z,1495.00
2023-04-28T01:26:50.023Z,1491.00
2023-04-28T01:27:50.065Z,1486.00
2023-04-28T01:28:50.113Z,1485.00
2023-04-28T01:29:50.149Z,1481.00
2023-04-28T01:30:50.185Z,1479.00
2023-04-28T01:31:50.280Z,1476.00
2023-04-28T01:32:50.288Z,1477.00
2023-04-28T01:33:50.311Z,1478.00
2023-04-28T01:34:50.356Z,1478.00
2023-04-28T01:35:50.399Z,1476.00
2023-04-28T01:36:50.444Z,1476.00
2023-04-28T01:37:50.543Z,1474.00
2023-04-28T01:38:50.520Z,1473.00
2023-04-28T01:39:50.559Z,1470.00
2023-04-28T01:40:50.597Z,1466.00
2023-04-28T01:41:50.641Z,1468.00
2023-04-28T01:42:50.687Z,1467.00
2023-04-28T01:43:50.736Z,1467.00
2023-04-28T01:44:50.781Z,1463.00
2023-04-28T01:45:50.854Z,1464.00
2023-04-28T01:46:50.905Z,1464.00
2023-04-28T01:47:50.927Z,1460.00
2023-04-28T01:48:51.023Z,1457.00
2023-04-28T01:49:50.983Z,1456.00
2023-04-28T01:50:51.105Z,1456.00
2023-04-28T01:51:51.091Z,1456.00
2023-04-28T01:52:51.122Z,1452.00
2023-04-28T01:53:51.162Z,1449.00
2023-04-28T01:54:51.220Z,1446.00
2023-04-28T01:55:51.264Z,1443.00
2023-04-28T01:56:51.348Z,1441.00
2023-04-28T01:57:51.363Z,1439.00
2023-04-28T01:58:51.493Z,1438.00
2023-04-28T01:59:51.448Z,1436.00
2023-04-28T02:00:51.490Z,1435.00
2023-04-28T02:01:51.605Z,1434.00
2023-04-28T02:02:51.713Z,1435.00
2023-04-28T02:03:51.765Z,1433.00
2023-04-28T02:04:51.729Z,1434.00
2023-04-28T02:05:51.700Z,1433.00
2023-04-28T02:06:51.745Z,1434.00
2023-04-28T02:07:51.776Z,1432.00
2023-04-28T02:08:51.908Z,1430.00
2023-04-28T02:09:51.866Z,1425.00
2023-04-28T02:10:51.930Z,1427.00
2023-04-28T02:11:51.961Z,1424.00
2023-04-28T02:12:52.004Z,1423.00
2023-04-28T02:13:52.046Z,1423.00
2023-04-28T02:14:52.099Z,1421.00
2023-04-28T02:15:52.154Z,1416.00
2023-04-28T02:16:52.203Z,1414.00
2023-04-28T02:17:52.322Z,1416.00
2023-04-28T02:18:52.269Z,1412.00
2023-04-28T02:19:52.322Z,1410.00
2023-04-28T02:20:52.362Z,1408.00
2023-04-28T02:21:52.412Z,1411.00
2023-04-28T02:22:52.450Z,1407.00
2023-04-28T02:23:52.551Z,1409.00
2023-04-28T02:24:52.558Z,1414.00
2023-04-28T02:25:52.589Z,1421.00
2023-04-28T02:26:52.642Z,1420.00
2023-04-28T02:27:52.716Z,1415.00
2023-04-28T02:28:52.718Z,1410.00
2023-04-28T02:29:52.795Z,1407.00
2023-04-28T02:30:52.824Z,1403.00
2023-04-28T02:31:52.890Z,1404.00
2023-04-28T02:32:52.950Z,1406.00
2023-04-28T02:33:52.960Z,1409.00
2023-04-28T02:34:52.993Z,1407.00
2023-04-28T02:35:53.050Z,1409.00
2023-04-28T02:36:53.089Z,1408.00
2023-04-28T02:37:53.123Z,1409.00
2023-04-28T02:38:53.190Z,1407.00
2023-04-28T02:39:53.222Z,1407.00
2023-04-28T02:40:53.286Z,1405.00
2023-04-28T02:41:53.335Z,1403.00
2023-04-28T02:42:53.383Z,1405.00
2023-04-28T02:43:53.407Z,1407.00
2023-04-28T02:44:53.459Z,1407.00
2023-04-28T02:45:53.503Z,1407.00
2023-04-28T02:46:53.619Z,1403.00
2023-04-28T02:47:53.681Z,1404.00
2023-04-28T02:48:53.658Z,1402.00
2023-04-28T02:49:53.771Z,1396.00
2023-04-28T02:50:53.769Z,1397.00
2023-04-28T02:51:53.830Z,1396.00
2023-04-28T02:52:53.866Z,1397.00
2023-04-28T02:53:53.922Z,1395.00
2023-04-28T02:54:53.968Z,1395.00
2023-04-28T02:55:54.002Z,1394.00
2023-04-28T02:56:54.132Z,1392.00
2023-04-28T02:57:54.133Z,1393.00
2023-04-28T02:58:54.173Z,1392.00
2023-04-28T02:59:54.206Z,1388.00
2023-04-28T03:00:54.260Z,1389.00
2023-04-28T03:01:54.309Z,1385.00
2023-04-28T03:02:54.506Z,1380.00
2023-04-28T03:03:54.635Z,1378.00
2023-04-28T03:04:54.503Z,1376.00
2023-04-28T03:05:54.524Z,1376.00
2023-04-28T03:06:54.590Z,1378.00
2023-04-28T03:07:54.608Z,1375.00
2023-04-28T03:08:54.674Z,1372.00
2023-04-28T03:09:54.709Z,1371.00
2023-04-28T03:10:54.786Z,1373.00
2023-04-28T03:11:54.828Z,1376.00
2023-04-28T03:12:54.872Z,1377.00
2023-04-28T03:13:54.956Z,1381.00
2023-04-28T03:14:54.969Z,1379.00
2023-04-28T03:15:55.061Z,1377.00
2023-04-28T03:16:55.084Z,1378.00
2023-04-28T03:17:55.145Z,1376.00
2023-04-28T03:18:55.184Z,1373.00
2023-04-28T03:19:55.305Z,1371.00
2023-04-28T03:20:55.302Z,1368.00
2023-04-28T03:21:55.331Z,1368.00
2023-04-28T03:22:55.400Z,1361.00
2023-04-28T03:23:55.442Z,1363.00
2023-04-28T03:24:55.488Z,1361.00
2023-04-28T03:25:55.550Z,1360.00
2023-04-28T03:26:55.584Z,1358.00
2023-04-28T03:27:55.628Z,1356.00
2023-04-28T03:28:55.672Z,1355.00
2023-04-28T03:29:55.725Z,1353.00
2023-04-28T03:30:55.776Z,1350.00
2023-04-28T03:31:55.875Z,1348.00
2023-04-28T03:32:55.921Z,1347.00
2023-04-28T03:33:55.923Z,1348.00
2023-04-28T03:34:55.976Z,1347.00
2023-04-28T03:35:56.011Z,1349.00
2023-04-28T03:36:56.075Z,1349.00
2023-04-28T03:37:56.110Z,1350.00
2023-04-28T03:38:56.167Z,1349.00
2023-04-28T03:39:56.221Z,1346.00
2023-04-28T03:40:56.275Z,1344.00
2023-04-28T03:41:56.371Z,1341.00
2023-04-28T03:42:56.391Z,1339.00
2023-04-28T03:43:56.436Z,1335.00
2023-04-28T03:44:56.494Z,1332.00
2023-04-28T03:45:56.618Z,1329.00
2023-04-28T03:46:56.602Z,1329.00
2023-04-28T03:47:56.707Z,1328.00
2023-04-28T03:48:56.715Z,1327.00
2023-04-28T03:49:56.784Z,1327.00
2023-04-28T03:50:56.885Z,1328.00
2023-04-28T03:51:56.907Z,1327.00
2023-04-28T03:52:56.950Z,1327.00
2023-04-28T03:53:57.014Z,1323.00
2023-04-28T03:54:57.067Z,1320.00
2023-04-28T03:55:57.122Z,1317.00
2023-04-28T03:56:57.191Z,1314.00
2023-04-28T03:57:57.248Z,1312.00
2023-04-28T03:58:57.315Z,1312.00
2023-04-28T03:59:57.370Z,1314.00
2023-04-28T04:00:57.416Z,1317.00
2023-04-28T04:01:57.501Z,1317.00
2023-04-28T04:02:57.783Z,1316.00
2023-04-28T04:03:57.848Z,1317.00
2023-04-28T04:04:57.753Z,1321.00
2023-04-28T04:05:57.719Z,1317.00
2023-04-28T04:06:57.789Z,1317.00
2023-04-28T04:07:57.845Z,1313.00
2023-04-28T04:08:57.893Z,1309.00
2023-04-28T04:09:57.951Z,1308.00
2023-04-28T04:10:58.039Z,1308.00
2023-04-28T04:11:58.059Z,1309.00
2023-04-28T04:12:58.108Z,1312.00
2023-04-28T04:13:58.161Z,1312.00
2023-04-28T04:14:58.217Z,1310.00
2023-04-28T04:15:58.311Z,1308.00
2023-04-28T04:16:58.340Z,1306.00
2023-04-28T04:17:58.455Z,1305.00
2023-04-28T04:18:58.453Z,1300.00
2023-04-28T04:19:58.557Z,1300.00
2023-04-28T04:20:58.588Z,1300.00
2023-04-28T04:21:58.760Z,1298.00
2023-04-28T04:22:58.708Z,1296.00
2023-04-28T04:23:58.770Z,1296.00
2023-04-28T04:24:58.835Z,1292.00
2023-04-28T04:25:58.895Z,1294.00
2023-04-28T04:26:58.983Z,1295.00
2023-04-28T04:27:59.052Z,1295.00
2023-04-28T04:28:59.097Z,1295.00
2023-04-28T04:29:59.145Z,1296.00
2023-04-28T04:30:59.258Z,1295.00
2023-04-28T04:31:59.280Z,1299.00
2023-04-28T04:32:59.401Z,1299.00
2023-04-28T04:33:59.405Z,1298.00
2023-04-28T04:34:59.467Z,1296.00
2023-04-28T04:35:59.521Z,1297.00
2023-04-28T04:36:59.623Z,1293.00
2023-04-28T04:37:59.655Z,1288.00
2023-04-28T04:39:00.316Z,1282.00
2023-04-28T04:39:59.814Z,1281.00
2023-04-28T04:40:59.851Z,1280.00
2023-04-28T04:42:01.817Z,1279.00
2023-04-28T04:43:00.939Z,1278.00
2023-04-28T04:43:59.976Z,1278.00
2023-04-28T04:45:00.006Z,1278.00
2023-04-28T04:46:00.059Z,1277.00
2023-04-28T04:47:00.134Z,1278.00
2023-04-28T04:48:00.171Z,1276.00
2023-04-28T04:49:00.156Z,1279.00
2023-04-28T04:50:00.212Z,1277.00
2023-04-28T04:51:00.234Z,1276.00
2023-04-28T04:52:00.262Z,1274.00
2023-04-28T04:53:00.298Z,1271.00
2023-04-28T04:54:00.314Z,1271.00
2023-04-28T04:55:00.363Z,1270.00
2023-04-28T04:56:00.395Z,1271.00
2023-04-28T04:57:00.435Z,1272.00
2023-04-28T04:58:00.442Z,1270.00
2023-04-28T04:59:00.666Z,1272.00
2023-04-28T05:00:00.739Z,1274.00
2023-04-28T05:01:00.646Z,1276.00
2023-04-28T05:02:00.649Z,1278.00
2023-04-28T05:03:00.819Z,1279.00
2023-04-28T05:04:00.947Z,1280.00
2023-04-28T05:05:12.277Z,1279.00
2023-04-28T05:06:01.855Z,1281.00
2023-04-28T05:07:00.865Z,1284.00
2023-04-28T05:08:00.901Z,1282.00
2023-04-28T05:09:00.927Z,1278.00
2023-04-28T05:10:00.990Z,1279.00
2023-04-28T05:11:01.015Z,1278.00
2023-04-28T05:12:01.069Z,1276.00
2023-04-28T05:13:01.071Z,1274.00
2023-04-28T05:14:01.108Z,1276.00
2023-04-28T05:15:01.149Z,1274.00
2023-04-28T05:16:01.293Z,1269.00
2023-04-28T05:17:01.288Z,1268.00
2023-04-28T05:18:01.285Z,1267.00
2023-04-28T05:19:01.272Z,1268.00
2023-04-28T05:20:01.312Z,1269.00
2023-04-28T05:21:01.421Z,1060.00
2023-04-28T05:22:01.492Z,983.00
2023-04-28T05:23:01.592Z,883.00
2023-04-28T05:24:01.617Z,820.00
2023-04-28T05:25:01.684Z,844.00
2023-04-28T05:26:01.750Z,911.00
2023-04-28T05:27:01.842Z,910.00
2023-04-28T05:28:01.914Z,908.00
2023-04-28T05:29:01.994Z,916.00
2023-04-28T05:30:02.082Z,902.00
2023-04-28T05:31:02.157Z,958.00
2023-04-28T05:32:02.448Z,1037.00
2023-04-28T05:33:02.387Z,1057.00
2023-04-28T05:34:02.334Z,1118.00
2023-04-28T05:35:02.386Z,1124.00
2023-04-28T05:36:02.484Z,1134.00
2023-04-28T05:37:02.594Z,1135.00
2023-04-28T05:38:02.688Z,1140.00
2023-04-28T05:39:02.796Z,1137.00
2023-04-28T05:40:02.894Z,1139.00
2023-04-28T05:41:02.996Z,1138.00
2023-04-28T05:42:03.116Z,1137.00
2023-04-28T05:43:03.203Z,1137.00
2023-04-28T05:44:03.305Z,1135.00
2023-04-28T05:45:04.339Z,1137.00
2023-04-28T05:46:04.169Z,1134.00
2023-04-28T05:47:03.521Z,1136.00
2023-04-28T05:48:03.602Z,1145.00
2023-04-28T05:49:03.585Z,1139.00
2023-04-28T05:50:03.666Z,1133.00
2023-04-28T05:51:03.674Z,1127.00
2023-04-28T05:52:03.721Z,1122.00
2023-04-28T05:53:03.747Z,1115.00
2023-04-28T05:54:03.797Z,1114.00
2023-04-28T05:55:03.842Z,1108.00
2023-04-28T05:56:03.878Z,1101.00
2023-04-28T05:57:03.916Z,1098.00
2023-04-28T05:58:03.949Z,1096.00
2023-04-28T05:59:04.033Z,1088.00
2023-04-28T06:00:04.044Z,1090.00
2023-04-28T06:01:04.074Z,1090.00
2023-04-28T06:02:04.158Z,1092.00
2023-04-28T06:03:04.377Z,1093.00
2023-04-28T06:04:04.517Z,1099.00
2023-04-28T06:05:04.462Z,1109.00
2023-04-28T06:06:06.803Z,1109.00
2023-04-28T06:07:04.463Z,1114.00
2023-04-28T06:08:04.366Z,1122.00
2023-04-28T06:09:04.413Z,1134.00
2023-04-28T06:10:04.439Z,1158.00
2023-04-28T06:11:04.482Z,1167.00
2023-04-28T06:12:04.525Z,1171.00
2023-04-28T06:13:04.561Z,1177.00
2023-04-28T06:14:04.609Z,1185.00
2023-04-28T06:15:04.684Z,1200.00
2023-04-28T06:16:04.714Z,1208.00
2023-04-28T06:17:05.380Z,1207.00
2023-04-28T06:18:04.796Z,1220.00
2023-04-28T06:19:04.793Z,1226.00
2023-04-28T06:20:04.833Z,1233.00
2023-04-28T06:21:04.879Z,1241.00
2023-04-28T06:22:04.903Z,1233.00
2023-04-28T06:23:04.944Z,1224.00
2023-04-28T06:24:06.871Z,1216.00
2023-04-28T06:25:06.019Z,1217.00
2023-04-28T06:26:05.060Z,1222.00
2023-04-28T06:27:05.110Z,1227.00
2023-04-28T06:28:05.139Z,1229.00
2023-04-28T06:29:05.185Z,1254.00
2023-04-28T06:30:05.222Z,1178.00
2023-04-28T06:31:05.290Z,1019.00
2023-04-28T06:32:05.335Z,1007.00
2023-04-28T06:33:05.530Z,1210.00
2023-04-28T06:34:05.521Z,1233.00
2023-04-28T06:35:05.655Z,1257.00
2023-04-28T06:36:05.741Z,1273.00
2023-04-28T06:37:05.836Z,1272.00
2023-04-28T06:38:05.934Z,1279.00
2023-04-28T06:39:06.025Z,1285.00
2023-04-28T06:40:06.171Z,1280.00
2023-04-28T06:41:06.210Z,1220.00
2023-04-28T06:42:06.349Z,1247.00
2023-04-28T06:43:06.403Z,1254.00
2023-04-28T06:44:06.461Z,1254.00
2023-04-28T06:45:06.536Z,1255.00
2023-04-28T06:46:06.611Z,1252.00
2023-04-28T06:47:06.919Z,1250.00
2023-04-28T06:48:06.802Z,1242.00
2023-04-28T06:49:06.847Z,1232.00
2023-04-28T06:50:06.991Z,1228.00
2023-04-28T06:51:07.006Z,1219.00
2023-04-28T06:52:07.094Z,1170.00
2023-04-28T06:53:07.176Z,1195.00
2023-04-28T06:54:07.258Z,1199.00
2023-04-28T06:55:07.311Z,1199.00
2023-04-28T06:56:09.247Z,1198.00
2023-04-28T06:57:07.426Z,1199.00
2023-04-28T06:58:07.467Z,1206.00
2023-04-28T06:59:07.487Z,1211.00
2023-04-28T07:00:07.529Z,1216.00
2023-04-28T07:01:07.597Z,1215.00
2023-04-28T07:02:07.732Z,1197.00
2023-04-28T07:03:07.799Z,1185.00
2023-04-28T07:04:07.769Z,1178.00
2023-04-28T07:05:07.774Z,1173.00
2023-04-28T07:06:07.742Z,1167.00
2023-04-28T07:07:07.784Z,1162.00
2023-04-28T07:08:07.852Z,1167.00
2023-04-28T07:09:07.855Z,1171.00
2023-04-28T07:10:07.894Z,1169.00
2023-04-28T07:11:07.941Z,1127.00
2023-04-28T07:12:07.975Z,1157.00
2023-04-28T07:13:08.877Z,1166.00
2023-04-28T07:14:08.028Z,1160.00
2023-04-28T07:15:09.988Z,1160.00
2023-04-28T07:16:08.269Z,1165.00
2023-04-28T07:17:08.140Z,1162.00
2023-04-28T07:18:08.248Z,1159.00
2023-04-28T07:19:08.208Z,1165.00
2023-04-28T07:20:08.270Z,1181.00
2023-04-28T07:21:08.289Z,1213.00
2023-04-28T07:22:08.400Z,1045.00
2023-04-28T07:23:08.484Z,1202.00
2023-04-28T07:24:08.588Z,1225.00
2023-04-28T07:25:08.689Z,1263.00
2023-04-28T07:26:09.716Z,1321.00
2023-04-28T07:27:08.887Z,1359.00
2023-04-28T07:28:08.783Z,1460.00
2023-04-28T07:29:08.818Z,1476.00
2023-04-28T07:30:25.009Z,1494.00
2023-04-28T07:31:09.858Z,1562.00
2023-04-28T07:32:09.193Z,1574.00
2023-04-28T07:33:08.959Z,1589.00
2023-04-28T07:34:08.943Z,1608.00
2023-04-28T07:35:09.012Z,1625.00
2023-04-28T07:36:08.994Z,1650.00
2023-04-28T07:37:09.001Z,1688.00
2023-04-28T07:38:09.019Z,1705.00
2023-04-28T07:39:09.052Z,1737.00
2023-04-28T07:40:09.085Z,1759.00
2023-04-28T07:41:11.058Z,1796.00
2023-04-28T07:42:09.226Z,1828.00
2023-04-28T07:43:09.291Z,1841.00
2023-04-28T07:44:09.362Z,1867.00
2023-04-28T07:45:10.405Z,1896.00
2023-04-28T07:46:09.545Z,1937.00
2023-04-28T07:47:09.569Z,1985.00
2023-04-28T07:48:09.700Z,2009.00
2023-04-28T07:49:09.767Z,2022.00
2023-04-28T07:50:09.782Z,2036.00
2023-04-28T07:51:09.870Z,2054.00
2023-04-28T07:52:09.981Z,2081.00
2023-04-28T07:53:10.402Z,2115.00
2023-04-28T07:54:10.061Z,2147.00
2023-04-28T07:55:10.124Z,2167.00
2023-04-28T07:56:10.195Z,2186.00
2023-04-28T07:57:10.282Z,2210.00
2023-04-28T07:58:10.348Z,2242.00
2023-04-28T07:59:11.471Z,2306.00
2023-04-28T08:00:10.456Z,2324.00
2023-04-28T08:01:11.327Z,2347.00
2023-04-28T08:02:10.605Z,2381.00
2023-04-28T08:03:11.728Z,2411.00
2023-04-28T08:04:10.876Z,2425.00
2023-04-28T08:05:11.212Z,2434.00
2023-04-28T08:06:10.805Z,2463.00
2023-04-28T08:07:10.847Z,2494.00
2023-04-28T08:08:10.909Z,2524.00
2023-04-28T08:09:11.810Z,2552.00
2023-04-28T08:10:11.018Z,2585.00
2023-04-28T08:11:11.068Z,2615.00
2023-04-28T08:12:11.833Z,2629.00
2023-04-28T08:13:11.188Z,2652.00
2023-04-28T08:14:11.270Z,2675.00
2023-04-28T08:15:11.325Z,2658.00
2023-04-28T08:16:11.450Z,2280.00
2023-04-28T08:17:11.562Z,2444.00
2023-04-28T08:18:11.552Z,2378.00
2023-04-28T08:19:11.618Z,2504.00
2023-04-28T08:20:11.689Z,2418.00
2023-04-28T08:21:11.792Z,2445.00
2023-04-28T08:22:11.926Z,2432.00
2023-04-28T08:23:11.972Z,2404.00
2023-04-28T08:24:12.054Z,2384.00
2023-04-28T08:25:12.163Z,2370.00
2023-04-28T08:26:12.253Z,2353.00
2023-04-28T08:27:12.343Z,2344.00
2023-04-28T08:28:12.503Z,2342.00
2023-04-28T08:29:12.508Z,2340.00
2023-04-28T08:30:12.595Z,2340.00
2023-04-28T08:31:12.728Z,2337.00
2023-04-28T08:32:13.412Z,2326.00
2023-04-28T08:33:12.903Z,2321.00
2023-04-28T08:34:14.620Z,2313.00
2023-04-28T08:35:12.967Z,2308.00
2023-04-28T08:36:13.002Z,2305.00
2023-04-28T08:37:13.034Z,2298.00
2023-04-28T08:38:13.048Z,2286.00
2023-04-28T08:39:13.810Z,2286.00
2023-04-28T08:40:13.123Z,2281.00
2023-04-28T08:41:13.142Z,2282.00
2023-04-28T08:42:13.273Z,2280.00
2023-04-28T08:43:13.262Z,2275.00
2023-04-28T08:44:13.326Z,2278.00
2023-04-28T08:45:13.245Z,2280.00
2023-04-28T08:46:13.362Z,2281.00
2023-04-28T08:47:13.310Z,2278.00
2023-04-28T08:48:13.427Z,2276.00
2023-04-28T08:49:13.913Z,2269.00
2023-04-28T08:50:13.384Z,2263.00
2023-04-28T08:51:13.402Z,2261.00
2023-04-28T08:52:13.434Z,2261.00
2023-04-28T08:53:13.462Z,2259.00
2023-04-28T08:54:25.604Z,2257.00
2023-04-28T08:55:14.503Z,2254.00
2023-04-28T08:56:13.536Z,2250.00
2023-04-28T08:57:13.537Z,2247.00
2023-04-28T08:58:13.577Z,2249.00
2023-04-28T08:59:13.587Z,2249.00
2023-04-28T09:00:13.620Z,2246.00
2023-04-28T09:01:13.658Z,2240.00
2023-04-28T09:02:13.713Z,2237.00
2023-04-28T09:03:13.812Z,2230.00
2023-04-28T09:04:14.594Z,2224.00
2023-04-28T09:05:14.032Z,2220.00
2023-04-28T09:06:13.830Z,2221.00
2023-04-28T09:07:14.416Z,2216.00
2023-04-28T09:08:13.906Z,2212.00
2023-04-28T09:09:13.911Z,2208.00
2023-04-28T09:10:13.896Z,2209.00
2023-04-28T09:11:14.876Z,2208.00
2023-04-28T09:12:14.908Z,2206.00
2023-04-28T09:13:13.977Z,2207.00
2023-04-28T09:14:14.136Z,2202.00
2023-04-28T09:15:14.032Z,2198.00
2023-04-28T09:16:14.093Z,2194.00
2023-04-28T09:17:14.089Z,2192.00
2023-04-28T09:18:14.262Z,2191.00
2023-04-28T09:19:15.904Z,2186.00
2023-04-28T09:20:15.851Z,1755.00
2023-04-28T09:21:14.209Z,1603.00
2023-04-28T09:22:26.441Z,1546.00
2023-04-28T09:23:15.517Z,1546.00
2023-04-28T09:24:14.877Z,1846.00
2023-04-28T09:25:14.717Z,1875.00
2023-04-28T09:26:14.824Z,1884.00
2023-04-28T09:27:14.904Z,1891.00
2023-04-28T09:28:15.088Z,1875.00
2023-04-28T09:29:15.106Z,1878.00
2023-04-28T09:30:15.194Z,1890.00
2023-04-28T09:31:15.241Z,1939.00
2023-04-28T09:32:15.583Z,1945.00
2023-04-28T09:33:15.401Z,1943.00
2023-04-28T09:34:15.699Z,1942.00
2023-04-28T09:35:15.451Z,1958.00
2023-04-28T09:36:16.492Z,1969.00
2023-04-28T09:37:15.538Z,1976.00
2023-04-28T09:38:15.566Z,1988.00
2023-04-28T09:39:15.614Z,1994.00
2023-04-28T09:40:15.658Z,2002.00
2023-04-28T09:41:15.767Z,2013.00
2023-04-28T09:42:15.783Z,2027.00
2023-04-28T09:43:21.836Z,2054.00
2023-04-28T09:44:17.423Z,2073.00
2023-04-28T09:45:15.926Z,2088.00
2023-04-28T09:46:16.867Z,2105.00
2023-04-28T09:47:15.975Z,2113.00
2023-04-28T09:48:16.478Z,2121.00
2023-04-28T09:49:16.073Z,2130.00
2023-04-28T09:50:16.196Z,2198.00
2023-04-28T09:51:16.060Z,2195.00
2023-04-28T09:52:16.135Z,2198.00
2023-04-28T09:53:16.234Z,2201.00
2023-04-28T09:54:16.319Z,2210.00
2023-04-28T09:55:16.401Z,2211.00
2023-04-28T09:56:16.497Z,2228.00
2023-04-28T09:57:16.583Z,2241.00
2023-04-28T09:58:16.677Z,2252.00
2023-04-28T09:59:16.757Z,2266.00
2023-04-28T10:00:16.853Z,2292.00
2023-04-28T10:01:16.954Z,2301.00
2023-04-28T10:02:41.088Z,2314.00
2023-04-28T10:03:19.044Z,2340.00
2023-04-28T10:04:17.212Z,2363.00
2023-04-28T10:05:17.318Z,2379.00
2023-04-28T10:06:17.103Z,2383.00
2023-04-28T10:07:17.136Z,2398.00
2023-04-28T10:08:17.152Z,2407.00
2023-04-28T10:09:17.159Z,2419.00
2023-04-28T10:10:17.249Z,2432.00
2023-04-28T10:11:17.209Z,2437.00
2023-04-28T10:12:17.232Z,2377.00
2023-04-28T10:13:17.250Z,1745.00
2023-04-28T10:14:17.311Z,1520.00
2023-04-28T10:15:17.346Z,1445.00
2023-04-28T10:16:17.438Z,1337.00
2023-04-28T10:17:17.452Z,1334.00
2023-04-28T10:18:17.500Z,1477.00
2023-04-28T10:19:17.660Z,1512.00
2023-04-28T10:20:17.596Z,1554.00
2023-04-28T10:21:17.635Z,1614.00
2023-04-28T10:22:17.673Z,1653.00
2023-04-28T10:23:17.729Z,1690.00
2023-04-28T10:24:17.751Z,1743.00
2023-04-28T10:25:17.794Z,1754.00
2023-04-28T10:26:17.815Z,1775.00
2023-04-28T10:27:17.851Z,1807.00
2023-04-28T10:28:17.923Z,1823.00
2023-04-28T10:29:17.916Z,1902.00
2023-04-28T10:31:18.170Z,1941.00
2023-04-28T10:32:17.981Z,1961.00
2023-04-28T10:33:18.010Z,2017.00
2023-04-28T10:34:18.028Z,2070.00
2023-04-28T10:35:18.056Z,2083.00
2023-04-28T10:36:24.084Z,2091.00
2023-04-28T10:37:19.106Z,2115.00
2023-04-28T10:38:18.174Z,2149.00
2023-04-28T10:39:18.142Z,2175.00
2023-04-28T10:40:18.154Z,2196.00
2023-04-28T10:41:18.172Z,2231.00
2023-04-28T10:42:18.189Z,2293.00
2023-04-28T10:43:18.221Z,2314.00
2023-04-28T10:44:18.237Z,2329.00
2023-04-28T10:45:18.250Z,2350.00
2023-04-28T10:46:18.296Z,2373.00
2023-04-28T10:47:18.360Z,2393.00
2023-04-28T10:48:18.302Z,2425.00
2023-04-28T10:49:18.369Z,2452.00
2023-04-28T10:50:21.924Z,2486.00
2023-04-28T10:51:19.447Z,2507.00
2023-04-28T10:52:18.459Z,2529.00
2023-04-28T10:53:18.488Z,2605.00
2023-04-28T10:54:18.501Z,2633.00
2023-04-28T10:55:22.203Z,2659.00
2023-04-28T10:56:18.575Z,2677.00
2023-04-28T10:57:18.542Z,2699.00
2023-04-28T10:58:18.554Z,2767.00
2023-04-28T10:59:18.569Z,2807.00
2023-04-28T11:00:18.594Z,2834.00
2023-04-28T11:01:18.660Z,2903.00
2023-04-28T11:02:18.767Z,2950.00
2023-04-28T11:03:18.722Z,2985.00
2023-04-28T11:04:18.858Z,3010.00
2023-04-28T11:05:18.763Z,3029.00
2023-04-28T11:06:18.694Z,3030.00
2023-04-28T11:07:18.743Z,3005.00
2023-04-28T11:08:18.735Z,2989.00
2023-04-28T11:09:18.766Z,2981.00
2023-04-28T11:10:18.756Z,2966.00
2023-04-28T11:11:18.799Z,2961.00
2023-04-28T11:12:18.807Z,2955.00
2023-04-28T11:13:18.831Z,2952.00
2023-04-28T11:14:18.841Z,2940.00
2023-04-28T11:15:18.875Z,2936.00
2023-04-28T11:16:18.894Z,2934.00
2023-04-28T11:17:18.970Z,2931.00
2023-04-28T11:18:18.927Z,2924.00
2023-04-28T11:19:18.944Z,2920.00
2023-04-28T11:20:18.964Z,2923.00
2023-04-28T11:21:18.999Z,2924.00
2023-04-28T11:22:19.011Z,2921.00
2023-04-28T11:23:19.045Z,2918.00
2023-04-28T11:24:19.067Z,2920.00
2023-04-28T11:25:19.120Z,2919.00
2023-04-28T11:26:19.210Z,2915.00
2023-04-28T11:27:19.284Z,2914.00
2023-04-28T11:28:19.370Z,2912.00
2023-04-28T11:29:19.455Z,2910.00
2023-04-28T11:30:19.550Z,2907.00
2023-04-28T11:31:19.780Z,2898.00
2023-04-28T11:32:19.739Z,2893.00
2023-04-28T11:33:19.832Z,2887.00
2023-04-28T11:34:19.928Z,2889.00
2023-04-28T11:35:20.070Z,2891.00
2023-04-28T11:36:20.117Z,2891.00
2023-04-28T11:37:20.232Z,2888.00
2023-04-28T11:38:20.331Z,2889.00
2023-04-28T11:39:20.411Z,2886.00
2023-04-28T11:40:20.520Z,2879.00
2023-04-28T11:41:20.644Z,2873.00
2023-04-28T11:42:20.698Z,2868.00
2023-04-28T11:43:20.790Z,2861.00
2023-04-28T11:44:20.878Z,2854.00
2023-04-28T11:45:20.951Z,2853.00
2023-04-28T11:46:21.067Z,2851.00
2023-04-28T11:47:21.217Z,2852.00
2023-04-28T11:48:21.291Z,2850.00
2023-04-28T11:49:21.329Z,2844.00
2023-04-28T11:50:21.374Z,2841.00
2023-04-28T11:51:21.486Z,2840.00
2023-04-28T11:52:21.557Z,2838.00
2023-04-28T11:53:22.181Z,2839.00
2023-04-28T11:54:21.709Z,2831.00
2023-04-28T11:55:21.780Z,2827.00
2023-04-28T11:56:21.871Z,2823.00
2023-04-28T11:57:22.101Z,2823.00
2023-04-28T11:58:22.048Z,2818.00
2023-04-28T11:59:22.158Z,2815.00
2023-04-28T12:00:22.296Z,2815.00
2023-04-28T12:01:22.259Z,2812.00
2023-04-28T12:02:22.416Z,2805.00
2023-04-28T12:03:22.608Z,2804.00
2023-04-28T12:04:22.611Z,2806.00
2023-04-28T12:05:22.727Z,2805.00
2023-04-28T12:06:22.687Z,2803.00
2023-04-28T12:07:22.750Z,2804.00
2023-04-28T12:08:22.812Z,2802.00